createdAt,value
2019-04-04T00:00:04.728Z,5.74
2019-04-04T00:01:04.719Z,5.73
2019-04-04T00:02:04.673Z,5.75
2019-04-04T00:03:04.670Z,5.73
2019-04-04T00:04:04.630Z,5.82
2019-04-04T00:05:04.599Z,5.83
2019-04-04T00:06:04.579Z,5.81
2019-04-04T00:07:04.557Z,5.86
2019-04-04T00:08:04.525Z,5.73
2019-04-04T00:09:04.506Z,5.85
2019-04-04T00:10:04.669Z,5.88
2019-04-04T00:11:06.075Z,5.83
2019-04-04T00:12:06.109Z,5.78
2019-04-04T00:13:04.432Z,5.82
2019-04-04T00:14:04.407Z,5.82
2019-04-04T00:15:04.368Z,5.78
2019-04-04T00:16:04.349Z,5.81
2019-04-04T00:17:04.322Z,5.83
2019-04-04T00:18:04.317Z,5.85
2019-04-04T00:19:04.285Z,5.85
2019-04-04T00:20:04.253Z,5.75
2019-04-04T00:21:04.234Z,5.74
2019-04-04T00:22:04.970Z,5.70
2019-04-04T00:23:05.048Z,5.68
2019-04-04T00:24:04.163Z,5.74
2019-04-04T00:25:04.135Z,5.70
2019-04-04T00:26:04.115Z,5.75
2019-04-04T00:27:04.093Z,5.77
2019-04-04T00:28:04.062Z,5.81
2019-04-04T00:29:04.042Z,5.81
2019-04-04T00:30:04.020Z,5.86
2019-04-04T00:31:04.024Z,5.77
2019-04-04T00:32:03.977Z,5.70
2019-04-04T00:33:03.944Z,5.74
2019-04-04T00:34:03.928Z,5.78
2019-04-04T00:35:03.909Z,5.59
2019-04-04T00:36:03.879Z,5.70
2019-04-04T00:37:04.745Z,5.64
2019-04-04T00:38:06.732Z,5.68
2019-04-04T00:39:03.807Z,5.70
2019-04-04T00:40:03.788Z,5.70
2019-04-04T00:41:03.771Z,5.70
2019-04-04T00:42:03.743Z,5.77
2019-04-04T00:43:03.714Z,5.70
2019-04-04T00:44:03.692Z,5.66
2019-04-04T00:45:03.669Z,5.64
2019-04-04T00:46:03.642Z,5.60
2019-04-04T00:47:03.623Z,5.64
2019-04-04T00:48:03.702Z,5.60
2019-04-04T00:49:04.845Z,5.56
2019-04-04T00:50:06.105Z,5.50
2019-04-04T00:51:03.531Z,5.59
2019-04-04T00:52:03.501Z,5.57
2019-04-04T00:53:03.483Z,5.56
2019-04-04T00:54:03.455Z,5.52
2019-04-04T00:55:03.436Z,5.53
2019-04-04T00:56:03.410Z,5.70
2019-04-04T00:57:03.384Z,5.55
2019-04-04T00:58:03.382Z,5.57
2019-04-04T00:59:03.336Z,5.56
2019-04-04T01:00:03.314Z,5.57
2019-04-04T01:01:03.295Z,5.66
2019-04-04T01:02:03.270Z,5.56
2019-04-04T01:03:03.248Z,5.45
2019-04-04T01:04:03.221Z,5.56
2019-04-04T01:05:03.201Z,5.48
2019-04-04T01:06:03.743Z,5.55
2019-04-04T01:07:05.169Z,5.55
2019-04-04T01:08:03.134Z,5.60
2019-04-04T01:09:03.110Z,5.64
2019-04-04T01:10:03.080Z,5.48
2019-04-04T01:11:03.063Z,5.55
2019-04-04T01:12:03.043Z,5.55
2019-04-04T01:13:03.013Z,5.53
2019-04-04T01:14:02.995Z,5.60
2019-04-04T01:15:02.986Z,5.55
2019-04-04T01:16:03.410Z,5.55
2019-04-04T01:17:04.048Z,5.57
2019-04-04T01:18:04.017Z,5.64
2019-04-04T01:19:02.873Z,5.57
2019-04-04T01:20:02.851Z,5.60
2019-04-04T01:21:02.834Z,5.59
2019-04-04T01:22:02.822Z,5.57
2019-04-04T01:23:02.785Z,5.60
2019-04-04T01:24:02.755Z,5.57
2019-04-04T01:25:02.750Z,5.55
2019-04-04T01:26:03.430Z,5.52
2019-04-04T01:27:04.140Z,5.48
2019-04-04T01:28:02.659Z,5.64
2019-04-04T01:29:05.501Z,5.57
2019-04-04T01:30:02.614Z,5.53
2019-04-04T01:31:02.637Z,5.56
2019-04-04T01:32:02.572Z,5.50
2019-04-04T01:33:03.815Z,5.49
2019-04-04T01:34:02.531Z,5.45
2019-04-04T01:35:02.502Z,5.49
2019-04-04T01:36:02.473Z,5.41
2019-04-04T01:37:02.457Z,5.41
2019-04-04T01:38:02.425Z,5.43
2019-04-04T01:39:02.406Z,5.38
2019-04-04T01:40:02.845Z,5.38
2019-04-04T01:41:04.418Z,5.37
2019-04-04T01:42:02.357Z,5.25
2019-04-04T01:43:02.306Z,5.34
2019-04-04T01:44:05.349Z,5.30
2019-04-04T01:45:02.267Z,5.35
2019-04-04T01:46:02.254Z,5.25
2019-04-04T01:47:02.221Z,5.28
2019-04-04T01:48:02.220Z,5.34
2019-04-04T01:49:02.168Z,5.17
2019-04-04T01:50:02.155Z,5.16
2019-04-04T01:51:02.127Z,5.25
2019-04-04T01:52:02.124Z,5.27
2019-04-04T01:53:02.076Z,5.05
2019-04-04T01:54:02.055Z,5.01
2019-04-04T01:55:03.525Z,4.95
2019-04-04T01:56:02.014Z,4.91
2019-04-04T01:57:01.985Z,4.88
2019-04-04T01:58:01.956Z,4.88
2019-04-04T01:59:01.937Z,4.91
2019-04-04T02:00:01.914Z,4.94
2019-04-04T02:01:01.889Z,4.94
2019-04-04T02:02:01.870Z,4.96
2019-04-04T02:03:01.845Z,4.92
2019-04-04T02:04:01.813Z,4.96
2019-04-04T02:05:01.794Z,4.91
2019-04-04T02:06:01.780Z,4.89
2019-04-04T02:07:01.752Z,4.86
2019-04-04T02:08:01.726Z,4.84
2019-04-04T02:09:02.839Z,4.84
2019-04-04T02:10:03.258Z,4.84
2019-04-04T02:11:01.675Z,4.77
2019-04-04T02:12:01.644Z,4.77
2019-04-04T02:13:01.612Z,4.70
2019-04-04T02:14:01.583Z,4.72
2019-04-04T02:15:01.564Z,4.76
2019-04-04T02:16:01.532Z,4.80
2019-04-04T02:17:01.541Z,4.83
2019-04-04T02:18:01.493Z,4.79
2019-04-04T02:19:01.469Z,4.73
2019-04-04T02:20:01.444Z,4.79
2019-04-04T02:21:01.421Z,4.75
2019-04-04T02:22:01.427Z,4.84
2019-04-04T02:23:01.924Z,4.73
2019-04-04T02:24:02.016Z,4.83
2019-04-04T02:25:03.059Z,4.86
2019-04-04T02:26:04.670Z,4.83
2019-04-04T02:27:01.280Z,4.92
2019-04-04T02:28:01.250Z,4.96
2019-04-04T02:29:01.224Z,4.98
2019-04-04T02:30:01.209Z,4.92
2019-04-04T02:31:01.180Z,4.98
2019-04-04T02:32:01.165Z,5.01
2019-04-04T02:33:01.136Z,5.01
2019-04-04T02:34:05.306Z,4.98
2019-04-04T02:35:01.084Z,4.98
2019-04-04T02:36:01.075Z,4.95
2019-04-04T02:37:01.037Z,5.09
2019-04-04T02:38:01.030Z,5.10
2019-04-04T02:39:01.004Z,5.07
2019-04-04T02:40:00.972Z,5.22
2019-04-04T02:41:00.947Z,5.23
2019-04-04T02:42:00.937Z,5.27
2019-04-04T02:43:00.906Z,5.17
2019-04-04T02:44:00.873Z,5.28
2019-04-04T02:45:05.098Z,5.27
2019-04-04T02:46:00.837Z,5.16
2019-04-04T02:47:00.805Z,5.17
2019-04-04T02:48:00.802Z,5.14
2019-04-04T02:49:00.761Z,5.05
2019-04-04T02:50:02.044Z,5.10
2019-04-04T02:51:00.710Z,5.09
2019-04-04T02:52:00.688Z,5.10
2019-04-04T02:53:00.673Z,5.12
2019-04-04T02:54:00.652Z,5.10
2019-04-04T02:55:00.626Z,5.09
2019-04-04T02:56:03.450Z,5.02
2019-04-04T02:57:00.575Z,5.10
2019-04-04T02:58:00.580Z,4.98
2019-04-04T02:59:00.538Z,4.96
2019-04-04T03:00:00.505Z,4.95
2019-04-04T03:01:00.611Z,4.98
2019-04-04T03:02:04.683Z,4.92
2019-04-04T03:03:00.455Z,4.91
2019-04-04T03:04:00.410Z,4.95
2019-04-04T03:05:00.379Z,4.94
2019-04-04T03:06:00.355Z,4.96
2019-04-04T03:07:00.330Z,4.99
2019-04-04T03:08:02.985Z,4.95
2019-04-04T03:09:00.283Z,4.99
2019-04-04T03:10:00.274Z,4.99
2019-04-04T03:11:00.237Z,5.04
2019-04-04T03:12:00.227Z,5.01
2019-04-04T03:13:00.196Z,5.02
2019-04-04T03:14:03.426Z,4.99
2019-04-04T03:15:00.154Z,5.01
2019-04-04T03:16:00.119Z,5.13
2019-04-04T03:17:00.097Z,5.12
2019-04-04T03:18:04.164Z,5.02
2019-04-04T03:19:00.054Z,5.12
2019-04-04T03:20:00.027Z,5.12
2019-04-04T03:21:00.010Z,5.12
2019-04-04T03:21:59.980Z,5.09
2019-04-04T03:23:00.488Z,5.07
2019-04-04T03:23:59.936Z,5.12
2019-04-04T03:24:59.916Z,5.10
2019-04-04T03:25:59.889Z,5.05
2019-04-04T03:26:59.871Z,5.01
2019-04-04T03:27:59.840Z,5.02
2019-04-04T03:29:04.282Z,5.10
2019-04-04T03:29:59.798Z,5.05
2019-04-04T03:31:02.917Z,5.10
2019-04-04T03:31:59.753Z,5.07
2019-04-04T03:32:59.734Z,5.13
2019-04-04T03:34:08.754Z,5.07
2019-04-04T03:34:59.676Z,5.05
2019-04-04T03:36:01.105Z,4.99
2019-04-04T03:36:59.629Z,5.10
2019-04-04T03:37:59.602Z,5.09
2019-04-04T03:38:59.586Z,5.01
2019-04-04T03:39:59.553Z,5.02
2019-04-04T03:40:59.562Z,5.13
2019-04-04T03:41:59.523Z,5.13
2019-04-04T03:42:59.484Z,5.12
2019-04-04T03:43:59.467Z,5.09
2019-04-04T03:44:59.463Z,5.12
2019-04-04T03:46:01.392Z,5.09
2019-04-04T03:46:59.399Z,5.12
2019-04-04T03:47:59.366Z,5.14
2019-04-04T03:48:59.366Z,5.16
2019-04-04T03:49:59.350Z,5.14
2019-04-04T03:51:03.549Z,5.30
2019-04-04T03:51:59.285Z,5.19
2019-04-04T03:52:59.293Z,5.14
2019-04-04T03:53:59.226Z,5.28
2019-04-04T03:54:59.204Z,5.32
2019-04-04T03:56:01.240Z,5.17
2019-04-04T03:56:59.159Z,5.20
2019-04-04T03:57:59.146Z,5.12
2019-04-04T03:59:00.126Z,5.13
2019-04-04T03:59:59.087Z,5.22
2019-04-04T04:00:59.062Z,5.14
2019-04-04T04:01:59.040Z,5.10
2019-04-04T04:02:59.022Z,5.17
2019-04-04T04:03:58.996Z,5.19
2019-04-04T04:05:00.995Z,5.09
2019-04-04T04:05:58.946Z,5.09
2019-04-04T04:06:58.937Z,5.14
2019-04-04T04:07:58.902Z,5.17
2019-04-04T04:08:58.873Z,5.14
2019-04-04T04:09:59.792Z,5.17
2019-04-04T04:10:58.829Z,5.17
2019-04-04T04:11:58.829Z,5.17
2019-04-04T04:12:58.781Z,5.14
2019-04-04T04:13:58.765Z,5.25
2019-04-04T04:14:58.739Z,5.19
2019-04-04T04:16:02.420Z,5.16
2019-04-04T04:16:58.716Z,5.16
2019-04-04T04:17:58.673Z,5.19
2019-04-04T04:18:58.641Z,5.23
2019-04-04T04:20:03.302Z,5.23
2019-04-04T04:20:58.592Z,5.17
2019-04-04T04:21:58.599Z,5.16
2019-04-04T04:22:58.551Z,5.14
2019-04-04T04:23:58.524Z,5.31
2019-04-04T04:25:02.154Z,5.23
2019-04-04T04:25:58.507Z,5.28
2019-04-04T04:26:58.469Z,5.28
2019-04-04T04:28:02.677Z,5.31
2019-04-04T04:28:58.409Z,5.27
2019-04-04T04:30:00.151Z,5.20
2019-04-04T04:30:58.359Z,5.23
2019-04-04T04:31:58.388Z,5.32
2019-04-04T04:32:58.310Z,5.25
2019-04-04T04:34:00.637Z,5.28
2019-04-04T04:34:58.268Z,5.31
2019-04-04T04:35:58.246Z,5.19
2019-04-04T04:36:58.247Z,5.25
2019-04-04T04:37:58.197Z,5.17
2019-04-04T04:38:59.855Z,5.16
2019-04-04T04:39:58.191Z,5.16
2019-04-04T04:40:58.140Z,5.16
2019-04-04T04:41:58.115Z,5.20
2019-04-04T04:43:00.689Z,5.23
2019-04-04T04:43:58.068Z,5.19
2019-04-04T04:44:58.043Z,5.37
2019-04-04T04:45:58.030Z,5.28
2019-04-04T04:46:58.001Z,5.23
2019-04-04T04:47:57.982Z,5.34
2019-04-04T04:48:57.942Z,5.35
2019-04-04T04:49:57.939Z,5.28
2019-04-04T04:50:57.904Z,5.30
2019-04-04T04:51:57.871Z,5.34
2019-04-04T04:52:57.844Z,5.25
2019-04-04T04:53:57.833Z,5.32
2019-04-04T04:54:57.797Z,5.25
2019-04-04T04:56:00.601Z,5.22
2019-04-04T04:56:57.748Z,5.31
2019-04-04T04:57:57.725Z,5.31
2019-04-04T04:58:57.707Z,5.37
2019-04-04T04:59:57.681Z,5.28
2019-04-04T05:00:57.668Z,5.40
2019-04-04T05:01:57.639Z,5.28
2019-04-04T05:02:57.610Z,5.35
2019-04-04T05:03:57.593Z,5.34
2019-04-04T05:04:59.387Z,5.30
2019-04-04T05:05:57.593Z,5.34
2019-04-04T05:06:57.539Z,5.34
2019-04-04T05:07:57.500Z,5.34
2019-04-04T05:08:57.469Z,5.35
2019-04-04T05:09:57.448Z,5.34
2019-04-04T05:10:57.429Z,5.37
2019-04-04T05:11:57.397Z,5.38
2019-04-04T05:12:57.372Z,5.31
2019-04-04T05:13:58.143Z,5.30
2019-04-04T05:14:57.330Z,5.32
2019-04-04T05:15:57.309Z,5.30
2019-04-04T05:16:57.282Z,5.34
2019-04-04T05:17:57.263Z,5.30
2019-04-04T05:18:57.250Z,5.31
2019-04-04T05:19:57.231Z,5.25
2019-04-04T05:20:57.556Z,5.32
2019-04-04T05:21:57.173Z,5.31
2019-04-04T05:22:57.220Z,5.23
2019-04-04T05:23:57.147Z,5.40
2019-04-04T05:25:07.988Z,5.40
2019-04-04T05:25:57.076Z,5.37
2019-04-04T05:26:57.055Z,5.31
2019-04-04T05:27:57.052Z,5.40
2019-04-04T05:28:57.291Z,5.37
2019-04-04T05:29:56.990Z,5.45
2019-04-04T05:30:57.023Z,5.49
2019-04-04T05:31:56.953Z,5.52
2019-04-04T05:32:56.937Z,5.43
2019-04-04T05:33:58.732Z,5.41
2019-04-04T05:34:56.895Z,5.50
2019-04-04T05:35:56.847Z,5.46
2019-04-04T05:36:56.822Z,5.49
2019-04-04T05:37:56.809Z,5.43
2019-04-04T05:38:56.776Z,5.45
2019-04-04T05:39:56.755Z,5.49
2019-04-04T05:40:56.738Z,5.43
2019-04-04T05:41:58.070Z,5.43
2019-04-04T05:42:56.682Z,5.45
2019-04-04T05:43:56.657Z,5.53
2019-04-04T05:44:56.631Z,5.45
2019-04-04T05:45:56.661Z,5.52
2019-04-04T05:46:56.590Z,5.56
2019-04-04T05:47:59.554Z,5.59
2019-04-04T05:48:57.649Z,5.63
2019-04-04T05:49:56.524Z,5.49
2019-04-04T05:50:56.485Z,5.60
2019-04-04T05:51:56.478Z,5.53
2019-04-04T05:52:56.457Z,5.57
2019-04-04T05:53:56.419Z,5.52
2019-04-04T05:54:56.436Z,5.63
2019-04-04T05:55:56.384Z,5.60
2019-04-04T05:56:56.354Z,5.59
2019-04-04T05:57:56.332Z,5.66
2019-04-04T05:58:56.319Z,5.64
2019-04-04T05:59:56.292Z,5.82
2019-04-04T06:00:57.679Z,5.66
2019-04-04T06:01:56.250Z,5.73
2019-04-04T06:02:56.255Z,5.74
2019-04-04T06:03:56.187Z,5.74
2019-04-04T06:04:56.173Z,5.75
2019-04-04T06:05:56.167Z,5.86
2019-04-04T06:06:56.160Z,5.83
2019-04-04T06:07:56.097Z,5.86
2019-04-04T06:08:56.074Z,5.86
2019-04-04T06:09:56.051Z,5.78
2019-04-04T06:10:56.026Z,5.88
2019-04-04T06:11:56.019Z,5.91
2019-04-04T06:12:56.950Z,5.95
2019-04-04T06:13:57.006Z,5.95
2019-04-04T06:14:55.942Z,6.01
2019-04-04T06:15:55.947Z,5.96
2019-04-04T06:16:55.892Z,5.92
2019-04-04T06:17:55.891Z,6.00
2019-04-04T06:18:55.872Z,5.95
2019-04-04T06:19:55.839Z,5.96
2019-04-04T06:20:55.804Z,5.98
2019-04-04T06:21:55.778Z,5.93
2019-04-04T06:22:55.752Z,6.06
2019-04-04T06:23:56.590Z,5.96
2019-04-04T06:24:59.084Z,6.06
2019-04-04T06:25:55.692Z,6.07
2019-04-04T06:26:55.666Z,6.03
2019-04-04T06:27:55.637Z,6.06
2019-04-04T06:28:55.624Z,6.10
2019-04-04T06:29:55.592Z,6.00
2019-04-04T06:30:55.573Z,6.00
2019-04-04T06:31:55.557Z,6.06
2019-04-04T06:32:55.517Z,6.04
2019-04-04T06:33:55.503Z,6.07
2019-04-04T06:34:56.782Z,6.11
2019-04-04T06:35:55.460Z,6.10
2019-04-04T06:36:55.435Z,6.10
2019-04-04T06:37:55.413Z,6.07
2019-04-04T06:38:55.397Z,6.13
2019-04-04T06:39:58.447Z,6.09
2019-04-04T06:40:55.339Z,6.09
2019-04-04T06:41:55.356Z,6.11
2019-04-04T06:42:55.309Z,6.13
2019-04-04T06:43:55.277Z,6.09
2019-04-04T06:44:55.249Z,6.09
2019-04-04T06:45:55.225Z,6.03
2019-04-04T06:46:55.209Z,6.07
2019-04-04T06:47:57.266Z,6.07
2019-04-04T06:48:55.165Z,6.07
2019-04-04T06:49:55.146Z,6.01
2019-04-04T06:50:55.128Z,6.03
2019-04-04T06:51:55.150Z,6.01
2019-04-04T06:52:56.489Z,6.11
2019-04-04T06:53:55.075Z,6.10
2019-04-04T06:54:55.282Z,6.09
2019-04-04T06:55:54.998Z,5.98
2019-04-04T06:56:54.972Z,6.04
2019-04-04T06:57:54.948Z,6.00
2019-04-04T06:58:54.933Z,6.10
2019-04-04T06:59:54.902Z,6.03
2019-04-04T07:00:54.900Z,6.09
2019-04-04T07:01:54.869Z,6.06
2019-04-04T07:02:56.006Z,6.07
2019-04-04T07:03:54.877Z,6.06
2019-04-04T07:04:54.848Z,6.11
2019-04-04T07:05:54.804Z,6.10
2019-04-04T07:06:54.742Z,6.06
2019-04-04T07:07:54.732Z,6.09
2019-04-04T07:08:54.703Z,6.10
2019-04-04T07:09:54.697Z,6.19
2019-04-04T07:10:58.222Z,6.18
2019-04-04T07:11:54.633Z,6.07
2019-04-04T07:13:06.315Z,6.19
2019-04-04T07:13:54.625Z,6.19
2019-04-04T07:14:54.562Z,6.21
2019-04-04T07:16:06.225Z,6.22
2019-04-04T07:16:54.590Z,6.22
2019-04-04T07:17:54.528Z,6.16
2019-04-04T07:18:54.466Z,6.16
2019-04-04T07:19:54.448Z,6.14
2019-04-04T07:20:54.429Z,6.13
2019-04-04T07:21:54.407Z,6.22
2019-04-04T07:22:55.931Z,6.28
2019-04-04T07:23:54.356Z,6.16
2019-04-04T07:24:54.369Z,6.19
2019-04-04T07:25:54.315Z,6.16
2019-04-04T07:26:54.289Z,6.21
2019-04-04T07:27:54.266Z,6.19
2019-04-04T07:28:54.241Z,6.11
2019-04-04T07:29:56.541Z,6.18
2019-04-04T07:30:54.727Z,6.21
2019-04-04T07:31:54.164Z,6.16
2019-04-04T07:32:54.158Z,6.16
2019-04-04T07:33:54.123Z,6.18
2019-04-04T07:34:54.266Z,6.16
2019-04-04T07:35:54.078Z,6.19
2019-04-04T07:36:54.055Z,6.19
2019-04-04T07:37:57.254Z,6.19
2019-04-04T07:38:54.010Z,6.22
2019-04-04T07:39:53.981Z,6.18
2019-04-04T07:40:53.955Z,6.19
2019-04-04T07:41:53.955Z,6.21
2019-04-04T07:42:53.927Z,6.28
2019-04-04T07:43:53.891Z,6.22
2019-04-04T07:44:54.641Z,6.36
2019-04-04T07:45:55.318Z,6.29
2019-04-04T07:46:53.819Z,6.28
2019-04-04T07:47:53.798Z,6.25
2019-04-04T07:48:53.780Z,6.28
2019-04-04T07:49:55.031Z,6.28
2019-04-04T07:50:53.728Z,6.18
2019-04-04T07:51:53.701Z,6.22
2019-04-04T07:52:53.679Z,6.26
2019-04-04T07:53:53.661Z,6.32
2019-04-04T07:54:53.645Z,6.32
2019-04-04T07:55:53.649Z,6.33
2019-04-04T07:56:53.594Z,6.32
2019-04-04T07:57:53.568Z,6.35
2019-04-04T07:58:53.540Z,6.43
2019-04-04T07:59:53.524Z,6.36
2019-04-04T08:00:53.528Z,6.40
2019-04-04T08:01:53.469Z,6.36
2019-04-04T08:02:53.455Z,6.35
2019-04-04T08:03:53.443Z,6.46
2019-04-04T08:04:53.411Z,6.35
2019-04-04T08:05:53.385Z,6.43
2019-04-04T08:06:53.370Z,6.43
2019-04-04T08:07:53.340Z,6.53
2019-04-04T08:08:53.318Z,6.48
2019-04-04T08:09:53.289Z,6.46
2019-04-04T08:10:53.273Z,6.44
2019-04-04T08:11:53.247Z,6.44
2019-04-04T08:12:53.227Z,6.43
2019-04-04T08:13:53.196Z,6.40
2019-04-04T08:14:53.176Z,6.40
2019-04-04T08:15:53.164Z,6.47
2019-04-04T08:16:53.132Z,6.35
2019-04-04T08:17:53.117Z,6.41
2019-04-04T08:18:53.081Z,6.43
2019-04-04T08:19:59.707Z,6.48
2019-04-04T08:20:53.042Z,6.43
2019-04-04T08:21:53.019Z,6.51
2019-04-04T08:22:52.994Z,6.53
2019-04-04T08:23:52.971Z,6.56
2019-04-04T08:24:52.946Z,6.61
2019-04-04T08:25:52.920Z,6.65
2019-04-04T08:26:52.898Z,6.62
2019-04-04T08:27:52.876Z,6.59
2019-04-04T08:28:52.852Z,6.61
2019-04-04T08:29:52.827Z,6.53
2019-04-04T08:30:52.821Z,6.51
2019-04-04T08:31:52.782Z,6.53
2019-04-04T08:32:52.766Z,6.51
2019-04-04T08:33:52.737Z,6.61
2019-04-04T08:34:52.715Z,6.46
2019-04-04T08:36:05.119Z,6.48
2019-04-04T08:36:52.676Z,6.50
2019-04-04T08:37:52.652Z,6.46
2019-04-04T08:38:52.632Z,6.59
2019-04-04T08:39:52.605Z,6.63
2019-04-04T08:40:52.580Z,6.69
2019-04-04T08:41:52.669Z,6.63
2019-04-04T08:42:52.537Z,6.61
2019-04-04T08:43:52.508Z,6.58
2019-04-04T08:44:52.496Z,6.59
2019-04-04T08:45:52.479Z,6.65
2019-04-04T08:46:55.437Z,6.65
2019-04-04T08:47:52.447Z,6.63
2019-04-04T08:48:52.416Z,6.58
2019-04-04T08:49:52.387Z,6.61
2019-04-04T08:50:52.352Z,6.56
2019-04-04T08:51:52.324Z,6.61
2019-04-04T08:52:52.314Z,6.63
2019-04-04T08:53:52.292Z,6.65
2019-04-04T08:54:52.256Z,6.62
2019-04-04T08:55:52.240Z,6.62
2019-04-04T08:56:52.215Z,6.63
2019-04-04T08:57:52.189Z,6.62
2019-04-04T08:58:52.167Z,6.59
2019-04-04T08:59:52.147Z,6.69
2019-04-04T09:00:52.124Z,6.69
2019-04-04T09:01:52.098Z,6.84
2019-04-04T09:02:52.077Z,6.90
2019-04-04T09:03:52.082Z,6.97
2019-04-04T09:04:52.083Z,6.91
2019-04-04T09:05:52.008Z,6.94
2019-04-04T09:06:51.983Z,6.95
2019-04-04T09:07:51.967Z,6.97
2019-04-04T09:08:51.947Z,7.02
2019-04-04T09:09:51.943Z,6.97
2019-04-04T09:10:51.900Z,7.02
2019-04-04T09:11:51.874Z,6.97
2019-04-04T09:12:51.848Z,6.91
2019-04-04T09:13:51.832Z,7.04
2019-04-04T09:14:51.841Z,6.94
2019-04-04T09:15:51.790Z,6.87
2019-04-04T09:16:51.762Z,6.83
2019-04-04T09:17:51.744Z,6.90
2019-04-04T09:18:51.717Z,6.94
2019-04-04T09:19:51.692Z,6.94
2019-04-04T09:20:51.685Z,6.94
2019-04-04T09:21:51.653Z,6.97
2019-04-04T09:22:51.630Z,6.98
2019-04-04T09:23:51.617Z,6.97
2019-04-04T09:24:51.607Z,6.99
2019-04-04T09:25:51.569Z,6.98
2019-04-04T09:26:51.537Z,6.98
2019-04-04T09:27:51.505Z,7.01
2019-04-04T09:28:51.489Z,7.05
2019-04-04T09:29:51.473Z,7.04
2019-04-04T09:30:51.454Z,6.94
2019-04-04T09:31:51.445Z,6.97
2019-04-04T09:32:51.401Z,7.09
2019-04-04T09:33:51.375Z,7.05
2019-04-04T09:34:51.368Z,7.09
2019-04-04T09:35:51.336Z,7.08
2019-04-04T09:36:51.315Z,7.01
2019-04-04T09:37:51.296Z,7.13
2019-04-04T09:38:51.272Z,7.09
2019-04-04T09:39:51.246Z,7.22
2019-04-04T09:40:51.230Z,7.20
2019-04-04T09:41:51.214Z,7.05
2019-04-04T09:42:51.197Z,7.15
2019-04-04T09:43:51.160Z,7.09
2019-04-04T09:44:51.200Z,7.20
2019-04-04T09:45:51.115Z,7.07
2019-04-04T09:47:04.635Z,7.05
2019-04-04T09:47:51.065Z,7.08
2019-04-04T09:48:51.084Z,7.13
2019-04-04T09:49:51.021Z,7.08
2019-04-04T09:50:51.001Z,7.05
2019-04-04T09:51:50.973Z,7.08
2019-04-04T09:52:50.960Z,7.12
2019-04-04T09:53:53.400Z,7.07
2019-04-04T09:54:50.915Z,7.07
2019-04-04T09:55:50.890Z,7.08
2019-04-04T09:56:50.864Z,7.01
2019-04-04T09:57:50.841Z,7.08
2019-04-04T09:58:50.870Z,7.09
2019-04-04T09:59:50.798Z,7.24
2019-04-04T10:00:50.771Z,7.16
2019-04-04T10:01:50.752Z,7.13
2019-04-04T10:02:50.730Z,7.17
2019-04-04T10:03:50.703Z,7.13
2019-04-04T10:04:50.687Z,7.19
2019-04-04T10:05:51.284Z,7.24
2019-04-04T10:06:50.646Z,7.17
2019-04-04T10:07:50.651Z,7.32
2019-04-04T10:08:50.595Z,7.31
2019-04-04T10:09:50.572Z,7.26
2019-04-04T10:10:50.558Z,7.23
2019-04-04T10:11:50.531Z,7.23
2019-04-04T10:12:50.502Z,7.26
2019-04-04T10:13:50.489Z,7.22
2019-04-04T10:14:50.480Z,7.24
2019-04-04T10:15:50.444Z,7.19
2019-04-04T10:16:50.416Z,7.20
2019-04-04T10:17:50.399Z,7.23
2019-04-04T10:18:50.376Z,7.24
2019-04-04T10:19:50.364Z,7.26
2019-04-04T10:20:50.345Z,7.29
2019-04-04T10:21:50.342Z,7.27
2019-04-04T10:22:50.277Z,7.24
2019-04-04T10:23:50.262Z,7.24
2019-04-04T10:24:50.260Z,7.26
2019-04-04T10:25:50.223Z,7.20
2019-04-04T10:26:50.196Z,7.26
2019-04-04T10:27:50.166Z,7.26
2019-04-04T10:28:50.216Z,7.23
2019-04-04T10:29:50.123Z,7.37
2019-04-04T10:30:50.100Z,7.29
2019-04-04T10:31:50.087Z,7.27
2019-04-04T10:32:50.062Z,7.26
2019-04-04T10:33:50.042Z,7.29
2019-04-04T10:34:50.033Z,7.35
2019-04-04T10:35:50.033Z,7.31
2019-04-04T10:36:49.972Z,7.29
2019-04-04T10:37:49.954Z,7.17
2019-04-04T10:38:49.947Z,7.23
2019-04-04T10:39:49.917Z,7.19
2019-04-04T10:40:49.956Z,7.24
2019-04-04T10:41:49.861Z,7.22
2019-04-04T10:42:49.854Z,7.09
2019-04-04T10:43:49.824Z,7.17
2019-04-04T10:44:49.787Z,7.17
2019-04-04T10:45:49.771Z,7.12
2019-04-04T10:46:49.752Z,7.13
2019-04-04T10:47:49.725Z,7.16
2019-04-04T10:48:49.697Z,7.19
2019-04-04T10:49:49.678Z,7.17
2019-04-04T10:50:49.685Z,7.17
2019-04-04T10:51:49.631Z,7.34
2019-04-04T10:52:49.611Z,7.31
2019-04-04T10:53:49.602Z,7.37
2019-04-04T10:54:49.564Z,7.27
2019-04-04T10:55:49.547Z,7.23
2019-04-04T10:56:49.538Z,7.32
2019-04-04T10:57:49.503Z,7.22
2019-04-04T10:58:49.490Z,7.26
2019-04-04T10:59:49.468Z,7.34
2019-04-04T11:00:49.463Z,7.19
2019-04-04T11:01:49.496Z,7.29
2019-04-04T11:02:49.381Z,7.32
2019-04-04T11:03:49.374Z,7.19
2019-04-04T11:04:49.337Z,7.24
2019-04-04T11:05:49.318Z,7.19
2019-04-04T11:06:49.299Z,7.08
2019-04-04T11:07:49.286Z,7.13
2019-04-04T11:08:49.270Z,6.99
2019-04-04T11:09:49.230Z,6.97
2019-04-04T11:10:49.210Z,6.98
2019-04-04T11:11:49.188Z,6.95
2019-04-04T11:12:49.183Z,6.81
2019-04-04T11:13:49.144Z,6.86
2019-04-04T11:14:49.115Z,6.81
2019-04-04T11:15:49.096Z,6.77
2019-04-04T11:16:49.073Z,6.86
2019-04-04T11:17:49.046Z,6.71
2019-04-04T11:18:49.031Z,6.81
2019-04-04T11:19:49.006Z,6.83
2019-04-04T11:20:48.998Z,6.80
2019-04-04T11:21:48.963Z,6.83
2019-04-04T11:22:48.940Z,6.94
2019-04-04T11:23:48.913Z,6.91
2019-04-04T11:24:49.001Z,6.89
2019-04-04T11:25:48.886Z,6.90
2019-04-04T11:26:48.850Z,6.89
2019-04-04T11:27:48.828Z,6.86
2019-04-04T11:28:48.805Z,6.87
2019-04-04T11:29:48.773Z,6.84
2019-04-04T11:30:48.747Z,6.84
2019-04-04T11:31:48.738Z,6.86
2019-04-04T11:32:49.136Z,6.84
2019-04-04T11:33:48.687Z,6.86
2019-04-04T11:34:53.462Z,6.83
2019-04-04T11:35:48.641Z,6.68
2019-04-04T11:36:48.623Z,6.73
2019-04-04T11:37:48.592Z,6.69
2019-04-04T11:38:48.570Z,6.72
2019-04-04T11:39:54.449Z,6.73
2019-04-04T11:40:48.527Z,6.68
2019-04-04T11:41:48.504Z,6.69
2019-04-04T11:42:48.483Z,6.76
2019-04-04T11:43:48.459Z,6.69
2019-04-04T11:44:48.432Z,6.65
2019-04-04T11:45:48.423Z,6.69
2019-04-04T11:46:48.387Z,6.66
2019-04-04T11:47:48.368Z,6.63
2019-04-04T11:48:48.349Z,6.66
2019-04-04T11:49:48.327Z,6.66
2019-04-04T11:50:48.298Z,6.73
2019-04-04T11:51:48.279Z,6.72
2019-04-04T11:52:48.250Z,6.81
2019-04-04T11:53:48.227Z,6.81
2019-04-04T11:54:48.205Z,6.81
2019-04-04T11:55:48.224Z,6.77
2019-04-04T11:56:48.166Z,6.69
2019-04-04T11:57:48.138Z,6.72
2019-04-04T11:58:48.132Z,6.66
2019-04-04T11:59:48.090Z,6.72
2019-04-04T12:00:48.071Z,6.76
2019-04-04T12:01:48.054Z,6.81
2019-04-04T12:02:48.097Z,6.77
2019-04-04T12:03:48.006Z,6.81
2019-04-04T12:04:47.984Z,6.84
2019-04-04T12:05:47.961Z,6.87
2019-04-04T12:06:47.942Z,6.69
2019-04-04T12:07:47.910Z,6.63
2019-04-04T12:08:47.890Z,6.66
2019-04-04T12:09:47.873Z,6.66
2019-04-04T12:10:47.844Z,6.62
2019-04-04T12:11:47.822Z,6.65
2019-04-04T12:12:47.803Z,6.61
2019-04-04T12:13:50.448Z,6.73
2019-04-04T12:14:47.755Z,6.66
2019-04-04T12:15:47.792Z,6.48
2019-04-04T12:16:47.703Z,6.48
2019-04-04T12:17:47.685Z,6.50
2019-04-04T12:18:47.659Z,6.59
2019-04-04T12:19:47.648Z,6.63
2019-04-04T12:20:47.611Z,6.71
2019-04-04T12:21:47.588Z,6.68
2019-04-04T12:22:47.592Z,6.83
2019-04-04T12:23:47.544Z,6.84
2019-04-04T12:24:47.522Z,6.80
2019-04-04T12:25:47.506Z,6.86
2019-04-04T12:26:47.478Z,6.90
2019-04-04T12:27:47.460Z,6.90
2019-04-04T12:28:47.453Z,6.81
2019-04-04T12:29:47.448Z,6.77
2019-04-04T12:30:47.384Z,6.80
2019-04-04T12:31:47.368Z,6.65
2019-04-04T12:32:47.345Z,6.63
2019-04-04T12:33:47.341Z,6.68
2019-04-04T12:34:47.298Z,6.56
2019-04-04T12:35:47.272Z,6.53
2019-04-04T12:36:47.255Z,6.56
2019-04-04T12:37:47.240Z,6.65
2019-04-04T12:38:47.210Z,6.65
2019-04-04T12:39:47.184Z,6.63
2019-04-04T12:40:47.174Z,6.62
2019-04-04T12:41:47.148Z,6.63
2019-04-04T12:42:47.138Z,6.58
2019-04-04T12:43:47.094Z,6.51
2019-04-04T12:44:47.068Z,6.47
2019-04-04T12:45:47.054Z,6.51
2019-04-04T12:46:47.027Z,6.53
2019-04-04T12:47:46.998Z,6.66
2019-04-04T12:48:47.005Z,6.73
2019-04-04T12:49:46.951Z,6.72
2019-04-04T12:50:48.412Z,6.81
2019-04-04T12:51:46.912Z,6.79
2019-04-04T12:52:46.908Z,6.86
2019-04-04T12:53:46.871Z,6.99
2019-04-04T12:54:46.831Z,6.97
2019-04-04T12:55:46.824Z,6.97
2019-04-04T12:56:46.793Z,6.94
2019-04-04T12:57:46.780Z,6.73
2019-04-04T12:58:46.754Z,6.73
2019-04-04T12:59:46.735Z,6.73
2019-04-04T13:00:46.722Z,6.63
2019-04-04T13:01:46.687Z,6.61
2019-04-04T13:02:46.671Z,6.63
2019-04-04T13:03:46.651Z,6.63
2019-04-04T13:04:46.618Z,6.51
2019-04-04T13:05:46.599Z,6.50
2019-04-04T13:06:46.586Z,6.44
2019-04-04T13:07:46.556Z,6.65
2019-04-04T13:08:46.541Z,6.62
2019-04-04T13:09:46.502Z,6.68
2019-04-04T13:10:46.515Z,6.77
2019-04-04T13:11:46.460Z,6.77
2019-04-04T13:12:46.438Z,6.84
2019-04-04T13:13:46.409Z,6.79
2019-04-04T13:14:46.393Z,6.84
2019-04-04T13:15:46.368Z,6.90
2019-04-04T13:16:46.348Z,6.77
2019-04-04T13:17:46.326Z,6.83